createdAt,value
2024-01-05T00:00:10.860Z,2.89
2024-01-05T00:02:39.908Z,2.83
2024-01-05T00:05:08.371Z,2.24
2024-01-05T00:07:36.400Z,2.29
2024-01-05T00:10:04.311Z,2.62
2024-01-05T00:12:32.205Z,2.61
2024-01-05T00:15:00.206Z,2.33
2024-01-05T00:17:28.021Z,2.43
2024-01-05T00:19:57.040Z,2.49
2024-01-05T00:22:24.802Z,2.72
2024-01-05T00:24:52.440Z,2.26
2024-01-05T00:27:20.187Z,2.85
2024-01-05T00:29:47.867Z,3.39
2024-01-05T00:32:18.577Z,2.64
2024-01-05T00:34:47.468Z,2.62
2024-01-05T00:37:16.538Z,2.50
2024-01-05T00:39:44.210Z,2.94
2024-01-05T00:42:11.853Z,3.28
2024-01-05T00:44:41.181Z,2.95
2024-01-05T00:47:09.146Z,2.52
2024-01-05T00:49:38.501Z,2.48
2024-01-05T00:52:06.913Z,3.03
2024-01-05T00:54:35.990Z,3.21
2024-01-05T00:57:03.974Z,3.02
2024-01-05T00:59:31.633Z,3.18
2024-01-05T01:01:59.296Z,2.40
2024-01-05T01:04:27.059Z,2.78
2024-01-05T01:06:54.791Z,2.66
2024-01-05T01:09:22.487Z,2.57
2024-01-05T01:11:52.894Z,2.53
2024-01-05T01:14:20.640Z,2.68
2024-01-05T01:16:48.301Z,2.21
2024-01-05T01:19:16.069Z,2.43
2024-01-05T01:21:43.810Z,3.15
2024-01-05T01:24:11.526Z,3.02
2024-01-05T01:26:40.231Z,2.40
2024-01-05T01:29:10.181Z,2.49
2024-01-05T01:31:37.892Z,2.65
2024-01-05T01:34:06.662Z,1.95
2024-01-05T01:36:34.545Z,2.92
2024-01-05T01:39:01.662Z,2.15
2024-01-05T01:41:29.373Z,2.61
2024-01-05T01:43:57.030Z,2.03
2024-01-05T01:46:26.699Z,2.25
2024-01-05T01:48:54.948Z,2.39
2024-01-05T01:51:23.270Z,2.29
2024-01-05T01:53:51.418Z,1.99
2024-01-05T01:56:19.204Z,2.63
2024-01-05T01:58:47.187Z,2.43
2024-01-05T02:01:15.557Z,1.96
2024-01-05T02:03:45.373Z,2.13
2024-01-05T02:06:13.205Z,2.27
2024-01-05T02:08:40.981Z,2.49
2024-01-05T02:11:08.804Z,2.97
2024-01-05T02:13:36.514Z,2.36
2024-01-05T02:16:04.269Z,2.47
2024-01-05T02:18:32.069Z,1.99
2024-01-05T02:21:03.688Z,2.13
2024-01-05T02:23:33.253Z,2.08
2024-01-05T02:26:01.669Z,2.52
2024-01-05T02:28:29.478Z,2.55
2024-01-05T02:30:57.910Z,3.11
2024-01-05T02:33:26.102Z,2.85
2024-01-05T02:35:54.224Z,1.80
2024-01-05T02:38:22.113Z,2.42
2024-01-05T02:40:51.169Z,2.63
2024-01-05T02:43:18.827Z,2.42
2024-01-05T02:45:46.478Z,2.40
2024-01-05T02:48:14.422Z,2.35
2024-01-05T02:50:42.251Z,2.55
2024-01-05T02:53:09.904Z,2.46
2024-01-05T02:55:37.577Z,2.32
2024-01-05T02:58:06.788Z,2.97
2024-01-05T03:00:34.680Z,2.57
2024-01-05T03:03:02.676Z,2.65
2024-01-05T03:05:30.453Z,3.19
2024-01-05T03:07:58.148Z,2.37
2024-01-05T03:10:25.810Z,2.49
2024-01-05T03:12:53.824Z,2.30
2024-01-05T03:15:22.922Z,2.19
2024-01-05T03:17:51.894Z,2.15
2024-01-05T03:20:21.067Z,2.39
2024-01-05T03:22:48.858Z,2.72
2024-01-05T03:25:17.022Z,2.25
2024-01-05T03:27:44.672Z,2.55
2024-01-05T03:30:13.008Z,2.21
2024-01-05T03:32:42.150Z,2.24
2024-01-05T03:35:10.149Z,2.05
2024-01-05T03:37:37.840Z,2.34
2024-01-05T03:40:06.479Z,2.33
2024-01-05T03:42:34.392Z,2.34
2024-01-05T03:45:02.392Z,2.34
2024-01-05T03:47:30.139Z,2.22
2024-01-05T03:49:59.232Z,2.68
2024-01-05T03:52:26.955Z,2.14
2024-01-05T03:54:55.012Z,2.16
2024-01-05T03:57:23.033Z,2.55
2024-01-05T03:59:50.842Z,2.71
2024-01-05T04:02:18.566Z,2.78
2024-01-05T04:04:46.413Z,2.12
2024-01-05T04:07:15.758Z,2.35
2024-01-05T04:09:43.407Z,2.21
2024-01-05T04:12:12.484Z,2.03
2024-01-05T04:14:40.285Z,2.63
2024-01-05T04:17:07.965Z,2.09
2024-01-05T04:19:35.739Z,2.70
2024-01-05T04:22:05.289Z,2.33
2024-01-05T04:24:34.436Z,2.51
2024-01-05T04:27:02.419Z,2.76
2024-01-05T04:29:30.153Z,2.94
2024-01-05T04:31:57.785Z,2.58
2024-01-05T04:34:25.786Z,2.23
2024-01-05T04:36:55.791Z,2.27
2024-01-05T04:39:23.522Z,2.50
2024-01-05T04:41:52.583Z,2.52
2024-01-05T04:44:20.927Z,2.10
2024-01-05T04:46:48.602Z,2.64
2024-01-05T04:49:16.319Z,2.52
2024-01-05T04:51:44.562Z,2.23
2024-01-05T04:54:12.683Z,2.30
2024-01-05T04:56:41.044Z,2.27
2024-01-05T04:59:10.085Z,2.20
2024-01-05T05:01:37.780Z,2.19
2024-01-05T05:04:05.881Z,2.04
2024-01-05T05:06:34.094Z,2.05
2024-01-05T05:09:01.955Z,2.41
2024-01-05T05:11:29.688Z,2.32
2024-01-05T05:13:57.346Z,2.01
2024-01-05T05:16:26.352Z,2.26
2024-01-05T05:18:54.857Z,2.46
2024-01-05T05:21:22.699Z,2.67
2024-01-05T05:23:50.391Z,2.07
2024-01-05T05:26:18.246Z,2.17
2024-01-05T05:28:45.917Z,2.16
2024-01-05T05:31:14.219Z,2.36
2024-01-05T05:33:43.460Z,2.72
2024-01-05T05:36:11.206Z,2.06
2024-01-05T05:38:38.905Z,2.05
2024-01-05T05:41:06.533Z,2.03
2024-01-05T05:43:34.230Z,2.25
2024-01-05T05:46:01.900Z,2.27
2024-01-05T05:48:29.760Z,2.07
2024-01-05T05:50:58.943Z,1.92
2024-01-05T05:53:26.648Z,1.93
2024-01-05T05:55:54.410Z,2.30
2024-01-05T05:58:23.021Z,2.30
2024-01-05T06:00:51.023Z,2.53
2024-01-05T06:03:18.860Z,2.04
2024-01-05T06:05:46.674Z,2.06
2024-01-05T06:08:15.705Z,2.16
2024-01-05T06:10:43.901Z,2.24
2024-01-05T06:13:11.942Z,2.12
2024-01-05T06:15:39.930Z,1.81
2024-01-05T06:18:08.481Z,2.03
2024-01-05T06:20:36.262Z,2.29
2024-01-05T06:23:04.196Z,2.17
2024-01-05T06:25:33.570Z,1.99
2024-01-05T06:28:01.434Z,2.16
2024-01-05T06:30:29.279Z,2.23
2024-01-05T06:32:57.173Z,1.94
2024-01-05T06:35:24.902Z,2.18
2024-01-05T06:37:52.564Z,2.12
2024-01-05T06:40:20.210Z,2.15
2024-01-05T06:42:49.243Z,2.23
2024-01-05T06:45:18.108Z,2.01
2024-01-05T06:47:45.912Z,2.01
2024-01-05T06:50:14.071Z,1.98
2024-01-05T06:52:41.873Z,2.00
2024-01-05T06:55:10.561Z,2.17
2024-01-05T06:57:38.307Z,2.21
2024-01-05T07:00:10.709Z,1.79
2024-01-05T07:02:38.775Z,2.00
2024-01-05T07:05:07.176Z,2.32
2024-01-05T07:07:35.153Z,2.12
2024-01-05T07:10:02.852Z,2.01
2024-01-05T07:12:30.579Z,2.31
2024-01-05T07:14:58.438Z,2.02
2024-01-05T07:17:27.625Z,2.75
2024-01-05T07:19:55.322Z,2.17
2024-01-05T07:22:23.129Z,2.11
2024-01-05T07:24:50.789Z,2.16
2024-01-05T07:27:18.686Z,1.99
2024-01-05T07:29:46.353Z,2.43
2024-01-05T07:32:13.989Z,2.16
2024-01-05T07:34:43.192Z,2.06
2024-01-05T07:37:10.887Z,1.89
2024-01-05T07:39:38.594Z,1.89
2024-01-05T07:42:06.821Z,2.02
2024-01-05T07:44:34.628Z,2.65
2024-01-05T07:47:02.309Z,1.79
2024-01-05T07:49:30.194Z,2.48
2024-01-05T07:51:59.378Z,1.92
2024-01-05T07:54:27.301Z,1.69
2024-01-05T07:56:55.060Z,1.90
2024-01-05T07:59:22.772Z,1.68
2024-01-05T08:01:52.964Z,1.88
2024-01-05T08:04:20.867Z,2.21
2024-01-05T08:06:49.513Z,2.04
2024-01-05T08:09:19.081Z,2.00
2024-01-05T08:11:47.137Z,1.97
2024-01-05T08:14:15.364Z,2.26
2024-01-05T08:16:43.049Z,1.93
2024-01-05T08:19:11.584Z,2.06
2024-01-05T08:21:39.374Z,2.05
2024-01-05T08:24:07.384Z,1.89
2024-01-05T08:26:36.767Z,2.44
2024-01-05T08:29:04.519Z,1.84
2024-01-05T08:31:32.282Z,1.71
2024-01-05T08:34:00.078Z,1.65
2024-01-05T08:36:29.155Z,1.86
2024-01-05T08:38:56.977Z,1.86
2024-01-05T08:41:25.315Z,1.99
2024-01-05T08:43:54.511Z,1.97
2024-01-05T08:46:22.152Z,1.92
2024-01-05T08:48:50.081Z,2.48
2024-01-05T08:51:17.960Z,1.85
2024-01-05T08:53:45.923Z,1.62
2024-01-05T08:56:14.382Z,1.84
2024-01-05T08:58:42.571Z,2.00
2024-01-05T09:01:12.276Z,1.87
2024-01-05T09:03:40.267Z,2.02
2024-01-05T09:06:08.354Z,1.93
2024-01-05T09:08:36.047Z,2.14
2024-01-05T09:11:03.868Z,1.99
2024-01-05T09:13:32.899Z,2.04
2024-01-05T09:16:01.307Z,2.00
2024-01-05T09:18:35.162Z,2.21
2024-01-05T09:21:03.409Z,2.23
2024-01-05T09:23:31.273Z,1.78
2024-01-05T09:25:58.917Z,2.03
2024-01-05T09:28:27.556Z,2.01
2024-01-05T09:30:55.775Z,1.95
2024-01-05T09:33:25.760Z,1.84
2024-01-05T09:35:55.004Z,1.80
2024-01-05T09:38:22.955Z,1.60
2024-01-05T09:40:54.331Z,1.74
2024-01-05T09:43:24.816Z,2.03
2024-01-05T09:45:53.819Z,2.00
2024-01-05T09:48:27.765Z,2.05
2024-01-05T09:51:00.838Z,1.62
2024-01-05T09:53:28.696Z,1.40
2024-01-05T09:55:56.934Z,1.62
2024-01-05T09:58:24.719Z,2.04
2024-01-05T10:00:53.782Z,2.07
2024-01-05T10:03:23.519Z,1.57
2024-01-05T10:05:52.452Z,1.60
2024-01-05T10:08:22.826Z,1.86
2024-01-05T10:10:54.209Z,1.29
2024-01-05T10:13:22.085Z,1.61
2024-01-05T10:15:57.389Z,1.78
2024-01-05T10:18:26.903Z,2.10
2024-01-05T10:20:55.075Z,2.21
2024-01-05T10:23:24.409Z,1.98
2024-01-05T10:25:52.948Z,1.62
2024-01-05T10:28:31.441Z,1.66
2024-01-05T10:31:13.370Z,1.56
2024-01-05T10:33:52.738Z,1.42
2024-01-05T10:36:21.742Z,1.51
2024-01-05T10:38:52.531Z,2.02
2024-01-05T10:41:22.209Z,1.55
2024-01-05T10:43:50.648Z,2.01
2024-01-05T10:46:19.867Z,1.74
2024-01-05T10:48:47.779Z,2.24
2024-01-05T10:51:17.740Z,1.47
2024-01-05T10:53:47.298Z,1.57
2024-01-05T10:56:19.473Z,1.47
2024-01-05T10:58:50.096Z,1.52
2024-01-05T11:01:20.181Z,1.47
2024-01-05T11:03:51.318Z,1.90
2024-01-05T11:06:20.448Z,1.24
2024-01-05T11:09:05.552Z,1.74
2024-01-05T11:11:45.178Z,1.56
2024-01-05T11:14:24.173Z,1.39
2024-01-05T11:17:18.622Z,1.26
2024-01-05T11:19:58.595Z,1.76
2024-01-05T11:22:31.321Z,1.76
2024-01-05T11:24:59.704Z,1.56
2024-01-05T11:27:34.338Z,1.25
2024-01-05T11:30:03.618Z,1.29
2024-01-05T11:32:39.437Z,1.55
2024-01-05T11:35:44.269Z,1.35
2024-01-05T11:38:29.373Z,1.70
2024-01-05T11:40:57.547Z,1.33
2024-01-05T11:43:40.013Z,1.31
2024-01-05T11:46:08.787Z,1.53
2024-01-05T11:48:53.880Z,1.12
2024-01-05T11:51:21.991Z,1.20
2024-01-05T11:53:51.089Z,1.36
2024-01-05T11:56:22.814Z,1.10
2024-01-05T11:58:52.255Z,1.41
2024-01-05T12:01:21.259Z,1.51
2024-01-05T12:03:50.003Z,1.57
2024-01-05T12:06:18.096Z,1.38
2024-01-05T12:08:46.420Z,1.20
2024-01-05T12:11:14.243Z,1.21
2024-01-05T12:13:42.102Z,1.22
2024-01-05T12:16:11.920Z,1.03
2024-01-05T12:18:45.883Z,1.46
2024-01-05T12:21:16.010Z,1.59
2024-01-05T12:23:52.944Z,1.47
2024-01-05T12:26:21.217Z,1.22
2024-01-05T12:28:50.138Z,1.50
2024-01-05T12:31:20.694Z,1.27
2024-01-05T12:33:49.205Z,1.41
2024-01-05T12:36:27.176Z,1.53
2024-01-05T12:38:55.113Z,1.34
2024-01-05T12:41:23.420Z,1.79
2024-01-05T12:43:53.052Z,1.66
2024-01-05T12:46:24.680Z,1.35
2024-01-05T12:48:52.987Z,1.80
2024-01-05T12:51:23.972Z,1.49
2024-01-05T12:53:59.994Z,1.81
2024-01-05T12:56:28.171Z,1.61
2024-01-05T12:58:56.060Z,1.68
2024-01-05T13:01:26.546Z,1.40
2024-01-05T13:03:56.577Z,1.39
2024-01-05T13:06:25.777Z,1.34
2024-01-05T13:08:54.511Z,1.32
2024-01-05T13:11:22.769Z,1.46
2024-01-05T13:13:51.734Z,1.81
2024-01-05T13:16:20.128Z,1.98
2024-01-05T13:18:49.939Z,1.32
2024-01-05T13:21:18.021Z,1.18
2024-01-05T13:23:47.907Z,1.04
2024-01-05T13:26:15.899Z,1.48
2024-01-05T13:28:44.978Z,1.48
2024-01-05T13:31:12.988Z,1.01
2024-01-05T13:33:41.867Z,1.73
2024-01-05T13:36:11.496Z,1.15
2024-01-05T13:38:39.664Z,1.33
2024-01-05T13:41:07.680Z,1.20
2024-01-05T13:43:36.528Z,1.14
2024-01-05T13:46:05.572Z,1.39
2024-01-05T13:48:33.667Z,1.57
2024-01-05T13:51:01.991Z,1.38
2024-01-05T13:53:31.277Z,1.51
2024-01-05T13:55:59.694Z,1.34
2024-01-05T13:58:27.737Z,1.31
2024-01-05T14:00:59.536Z,1.64
2024-01-05T14:03:29.661Z,1.21
2024-01-05T14:05:57.972Z,1.75
2024-01-05T14:08:25.955Z,1.24
2024-01-05T14:10:56.192Z,1.14
2024-01-05T14:13:24.443Z,1.41
2024-01-05T14:15:52.278Z,1.81
2024-01-05T14:18:20.218Z,1.85
2024-01-05T14:20:47.950Z,1.57
2024-01-05T14:23:15.717Z,1.51
2024-01-05T14:25:43.384Z,1.69
2024-01-05T14:28:12.385Z,1.59
2024-01-05T14:30:40.657Z,1.68
2024-01-05T14:33:08.806Z,1.69
2024-01-05T14:35:36.910Z,1.49
2024-01-05T14:38:04.861Z,1.38
2024-01-05T14:40:32.565Z,1.39
2024-01-05T14:42:59.395Z,1.35
2024-01-05T14:45:28.427Z,1.64
2024-01-05T14:47:56.135Z,1.89
2024-01-05T14:50:23.935Z,1.50
2024-01-05T14:52:56.117Z,1.59
2024-01-05T14:55:31.591Z,1.22
2024-01-05T14:58:02.036Z,1.52
2024-01-05T15:00:31.236Z,1.60
2024-01-05T15:03:00.862Z,1.32
2024-01-05T15:05:28.794Z,1.40
2024-01-05T15:07:56.644Z,1.23
2024-01-05T15:10:24.719Z,1.18
2024-01-05T15:12:53.560Z,1.53
2024-01-05T15:15:21.573Z,1.44
2024-01-05T15:17:51.171Z,1.46
2024-01-05T15:20:19.060Z,1.49
2024-01-05T15:22:46.871Z,1.73
2024-01-05T15:25:16.237Z,1.56
2024-01-05T15:27:44.072Z,1.45
2024-01-05T15:30:13.332Z,1.46
2024-01-05T15:32:41.352Z,1.59
2024-01-05T15:35:11.867Z,1.86
2024-01-05T15:37:39.577Z,1.53
2024-01-05T15:40:08.940Z,1.61
2024-01-05T15:42:36.746Z,1.46
2024-01-05T15:45:04.823Z,1.88
2024-01-05T15:47:32.517Z,1.17
2024-01-05T15:50:00.519Z,1.78
2024-01-05T15:52:29.766Z,2.21
2024-01-05T15:54:57.438Z,1.43
2024-01-05T15:57:25.158Z,1.60
2024-01-05T15:59:52.907Z,1.39
2024-01-05T16:02:20.610Z,1.27
2024-01-05T16:04:49.568Z,1.47
2024-01-05T16:07:17.444Z,1.46
2024-01-05T16:09:46.981Z,1.47
2024-01-05T16:12:14.664Z,1.50
2024-01-05T16:14:48.224Z,1.32
2024-01-05T16:17:16.129Z,1.21
2024-01-05T16:19:43.866Z,1.47
2024-01-05T16:22:11.526Z,1.28
2024-01-05T16:24:39.191Z,1.11
2024-01-05T16:27:08.375Z,1.33
2024-01-05T16:29:36.026Z,1.30
2024-01-05T16:32:03.739Z,1.57
2024-01-05T16:34:31.511Z,1.43
2024-01-05T16:37:04.836Z,1.36
2024-01-05T16:39:32.686Z,1.47
2024-01-05T16:42:00.360Z,1.62
2024-01-05T16:44:29.343Z,1.73
2024-01-05T16:46:57.403Z,1.65
2024-01-05T16:49:25.250Z,1.09
2024-01-05T16:51:55.012Z,1.14
2024-01-05T16:54:22.726Z,1.28
2024-01-05T16:56:54.630Z,1.41
2024-01-05T16:59:24.232Z,1.65
2024-01-05T17:01:53.244Z,1.60
2024-01-05T17:04:23.571Z,1.76
2024-01-05T17:06:53.347Z,1.55
2024-01-05T17:09:21.812Z,1.64
2024-01-05T17:11:49.559Z,1.30
2024-01-05T17:14:17.849Z,1.18
2024-01-05T17:16:47.840Z,1.77
2024-01-05T17:19:17.391Z,1.27
2024-01-05T17:21:45.300Z,0.99
2024-01-05T17:24:13.150Z,1.45
2024-01-05T17:26:41.641Z,1.27
2024-01-05T17:29:09.320Z,1.30
2024-01-05T17:31:37.119Z,1.41
2024-01-05T17:34:04.961Z,1.23
2024-01-05T17:36:40.437Z,1.26
2024-01-05T17:39:08.512Z,1.66
2024-01-05T17:41:36.676Z,1.42
2024-01-05T17:44:04.889Z,1.10
2024-01-05T17:46:32.603Z,1.34
2024-01-05T17:49:00.413Z,1.43
2024-01-05T17:51:33.679Z,1.37
2024-01-05T17:54:02.847Z,1.41
2024-01-05T17:56:34.016Z,1.26
2024-01-05T17:59:04.142Z,1.25
2024-01-05T18:01:32.674Z,1.17
2024-01-05T18:04:00.924Z,1.48
2024-01-05T18:06:28.980Z,1.60
2024-01-05T18:08:56.698Z,1.30
2024-01-05T18:11:26.562Z,1.01
2024-01-05T18:13:54.256Z,1.10
2024-01-05T18:16:23.247Z,1.18
2024-01-05T18:18:51.100Z,1.52
2024-01-05T18:21:22.352Z,1.54
2024-01-05T18:23:50.365Z,1.20
2024-01-05T18:26:21.406Z,1.36
2024-01-05T18:28:50.990Z,1.24
2024-01-05T18:31:26.091Z,1.64
2024-01-05T18:33:54.175Z,1.32
2024-01-05T18:36:22.190Z,1.04
2024-01-05T18:38:50.956Z,1.59
2024-01-05T18:41:22.522Z,1.52
2024-01-05T18:43:51.803Z,1.54
2024-01-05T18:46:19.730Z,1.52
2024-01-05T18:48:47.911Z,1.69
2024-01-05T18:51:15.932Z,1.58
2024-01-05T18:53:43.721Z,1.46
2024-01-05T18:56:13.672Z,1.54
2024-01-05T18:58:42.275Z,1.03
2024-01-05T19:01:12.326Z,1.81
2024-01-05T19:03:40.175Z,1.38
2024-01-05T19:06:08.762Z,1.44
2024-01-05T19:08:36.443Z,1.37
2024-01-05T19:11:05.425Z,1.34
2024-01-05T19:13:33.446Z,1.78
2024-01-05T19:16:01.530Z,1.59
2024-01-05T19:18:31.397Z,1.23
2024-01-05T19:20:59.158Z,1.51
2024-01-05T19:23:26.908Z,1.48
2024-01-05T19:25:54.593Z,1.61
2024-01-05T19:28:24.081Z,1.66
2024-01-05T19:30:51.782Z,1.33
2024-01-05T19:33:19.497Z,1.25
2024-01-05T19:35:49.565Z,1.49
2024-01-05T19:38:17.484Z,1.34
2024-01-05T19:40:45.400Z,1.69
2024-01-05T19:43:13.179Z,1.75
2024-01-05T19:45:42.418Z,1.60
2024-01-05T19:48:10.360Z,1.67
2024-01-05T19:50:38.757Z,1.25
2024-01-05T19:53:07.847Z,1.39
2024-01-05T19:55:35.528Z,1.13
2024-01-05T19:58:03.200Z,1.56
2024-01-05T20:00:30.981Z,1.16
2024-01-05T20:02:58.685Z,1.35
2024-01-05T20:05:26.881Z,1.19
2024-01-05T20:07:59.405Z,1.43
2024-01-05T20:10:29.578Z,1.35
2024-01-05T20:12:57.377Z,1.44
2024-01-05T20:15:27.326Z,1.20
2024-01-05T20:17:56.068Z,1.21
2024-01-05T20:20:24.378Z,1.30
2024-01-05T20:22:52.210Z,1.29
2024-01-05T20:25:20.821Z,1.19
2024-01-05T20:27:49.911Z,1.23
2024-01-05T20:30:18.460Z,1.52
2024-01-05T20:32:46.247Z,1.59
2024-01-05T20:35:14.059Z,1.46
2024-01-05T20:37:41.706Z,1.52
2024-01-05T20:40:10.529Z,1.39
2024-01-05T20:42:38.911Z,1.29
2024-01-05T20:45:12.643Z,2.01
2024-01-05T20:47:40.842Z,1.36
2024-01-05T20:50:09.489Z,1.28
2024-01-05T20:52:37.289Z,1.29
2024-01-05T20:55:05.487Z,1.33
2024-01-05T20:57:33.239Z,1.13
2024-01-05T21:00:00.972Z,1.75
2024-01-05T21:02:30.224Z,1.20
2024-01-05T21:04:58.090Z,1.66
2024-01-05T21:07:25.980Z,1.57
2024-01-05T21:09:53.747Z,1.56
2024-01-05T21:12:22.724Z,1.49
2024-01-05T21:14:50.407Z,1.35
2024-01-05T21:17:18.087Z,1.69
2024-01-05T21:19:47.333Z,1.54
2024-01-05T21:22:15.923Z,1.58
2024-01-05T21:24:44.409Z,1.69
2024-01-05T21:27:12.419Z,1.51
2024-01-05T21:29:42.695Z,1.27
2024-01-05T21:32:10.502Z,1.61
2024-01-05T21:34:41.007Z,1.27
2024-01-05T21:37:10.350Z,1.28
2024-01-05T21:39:38.517Z,1.23
2024-01-05T21:42:08.184Z,1.50
2024-01-05T21:44:35.895Z,1.34
2024-01-05T21:47:03.557Z,1.44
2024-01-05T21:49:31.519Z,1.14
2024-01-05T21:52:00.072Z,1.46
2024-01-05T21:54:29.291Z,1.64
2024-01-05T21:56:57.224Z,1.30
2024-01-05T21:59:24.936Z,1.52
2024-01-05T22:01:52.581Z,1.45
2024-01-05T22:04:20.325Z,1.59
2024-01-05T22:06:48.092Z,1.46
2024-01-05T22:09:17.142Z,1.24
2024-01-05T22:11:46.386Z,1.26
2024-01-05T22:14:14.987Z,1.61
2024-01-05T22:16:43.323Z,1.69
2024-01-05T22:19:11.312Z,1.67
2024-01-05T22:21:39.418Z,1.53
2024-01-05T22:24:08.913Z,1.37
2024-01-05T22:26:37.172Z,1.59
2024-01-05T22:29:07.183Z,1.43
2024-01-05T22:31:34.956Z,1.14
2024-01-05T22:34:02.861Z,1.47
2024-01-05T22:36:30.622Z,1.25
2024-01-05T22:38:58.307Z,1.34
2024-01-05T22:41:25.954Z,1.34
2024-01-05T22:43:54.542Z,1.21
2024-01-05T22:46:24.176Z,1.52
2024-01-05T22:48:51.976Z,1.20
2024-01-05T22:51:24.473Z,1.43
2024-01-05T22:53:52.260Z,1.41
2024-01-05T22:56:20.187Z,1.36
2024-01-05T22:58:47.896Z,1.49
2024-01-05T23:01:20.314Z,1.65
2024-01-05T23:03:50.698Z,1.40
2024-01-05T23:06:18.827Z,1.39
2024-01-05T23:08:46.613Z,1.60
2024-01-05T23:11:14.327Z,1.76
2024-01-05T23:13:42.034Z,1.34
2024-01-05T23:16:09.751Z,1.59
2024-01-05T23:18:37.637Z,1.56
2024-01-05T23:21:07.062Z,1.27
2024-01-05T23:23:37.511Z,1.41
2024-01-05T23:26:06.264Z,1.67
2024-01-05T23:28:33.954Z,1.44
2024-01-05T23:31:01.744Z,1.47
2024-01-05T23:33:29.595Z,1.58
2024-01-05T23:35:57.295Z,1.04
2024-01-05T23:38:26.712Z,1.70
2024-01-05T23:40:55.362Z,1.54
2024-01-05T23:43:24.036Z,1.60
2024-01-05T23:45:52.655Z,1.28
2024-01-05T23:48:20.639Z,1.43
2024-01-05T23:50:48.403Z,1.60
2024-01-05T23:53:16.428Z,1.68
2024-01-05T23:55:45.452Z,2.11
2024-01-05T23:58:13.106Z,1.23
